createdAt,value
2017-11-03T00:00:49.026Z,63.40
2017-11-03T00:03:16.907Z,63.50
2017-11-03T00:05:44.863Z,63.50
2017-11-03T00:08:12.751Z,63.60
2017-11-03T00:10:39.894Z,63.60
2017-11-03T00:13:07.851Z,63.90
2017-11-03T00:15:35.774Z,63.50
2017-11-03T00:18:02.895Z,63.40
2017-11-03T00:20:30.026Z,63.50
2017-11-03T00:22:57.907Z,63.50
2017-11-03T00:25:25.788Z,63.50
2017-11-03T00:27:53.936Z,63.40
2017-11-03T00:30:21.842Z,63.50
2017-11-03T00:32:48.995Z,63.40
2017-11-03T00:35:16.112Z,63.40
2017-11-03T00:37:44.029Z,63.50
2017-11-03T00:40:11.219Z,63.40
2017-11-03T00:42:39.102Z,63.50
2017-11-03T00:45:06.988Z,63.50
2017-11-03T00:47:34.099Z,63.50
2017-11-03T00:50:01.987Z,63.70
2017-11-03T00:52:29.947Z,63.10
2017-11-03T00:54:57.827Z,63.10
2017-11-03T00:57:25.712Z,63.00
2017-11-03T00:59:52.950Z,63.00
2017-11-03T01:02:20.830Z,63.10
2017-11-03T01:04:47.950Z,63.10
2017-11-03T01:07:15.835Z,63.30
2017-11-03T01:09:43.715Z,63.10
2017-11-03T01:12:10.944Z,63.10
2017-11-03T01:14:39.031Z,63.30
2017-11-03T01:17:06.168Z,63.30
2017-11-03T01:19:34.073Z,63.50
2017-11-03T01:22:01.184Z,63.50
2017-11-03T01:24:29.167Z,63.30
2017-11-03T01:26:57.055Z,63.60
2017-11-03T01:29:24.175Z,63.60
2017-11-03T01:31:52.138Z,63.30
2017-11-03T01:34:20.827Z,63.00
2017-11-03T01:36:49.475Z,62.90
2017-11-03T01:39:16.680Z,63.10
2017-11-03T01:41:44.563Z,63.00
2017-11-03T01:44:11.723Z,63.00
2017-11-03T01:46:38.846Z,63.20
2017-11-03T01:49:06.726Z,63.10
2017-11-03T01:51:33.958Z,63.00
2017-11-03T01:54:01.843Z,63.10
2017-11-03T01:56:28.960Z,63.10
2017-11-03T01:58:57.659Z,63.20
2017-11-03T02:01:25.642Z,63.80
2017-11-03T02:03:53.523Z,63.30
2017-11-03T02:06:21.181Z,63.30
2017-11-03T02:08:49.137Z,63.80
2017-11-03T02:11:17.021Z,63.30
2017-11-03T02:13:44.267Z,63.30
2017-11-03T02:16:12.150Z,63.20
2017-11-03T02:18:39.299Z,63.20
2017-11-03T02:21:06.526Z,62.90
2017-11-03T02:23:34.429Z,63.00
2017-11-03T02:26:01.575Z,63.00
2017-11-03T02:28:28.691Z,62.90
2017-11-03T02:30:56.659Z,63.10
2017-11-03T02:33:23.775Z,63.70
2017-11-03T02:35:51.539Z,63.10
2017-11-03T02:38:18.687Z,63.20
2017-11-03T02:40:45.809Z,64.10
2017-11-03T02:43:12.955Z,63.10
2017-11-03T02:45:40.182Z,63.20
2017-11-03T02:48:08.062Z,63.20
2017-11-03T02:50:35.975Z,63.10
2017-11-03T02:53:03.094Z,63.00
2017-11-03T02:55:30.322Z,62.80
2017-11-03T02:57:58.233Z,63.00
2017-11-03T03:00:25.439Z,62.70
2017-11-03T03:02:53.489Z,62.80
2017-11-03T03:05:20.982Z,62.80
2017-11-03T03:07:49.674Z,62.70
2017-11-03T03:10:17.626Z,62.80
2017-11-03T03:12:45.507Z,63.30
2017-11-03T03:15:13.470Z,62.80
2017-11-03T03:17:42.267Z,63.00
2017-11-03T03:20:10.149Z,63.00
2017-11-03T03:22:37.267Z,62.90
2017-11-03T03:25:04.426Z,63.00
2017-11-03T03:27:32.338Z,63.70
2017-11-03T03:29:59.548Z,63.70
2017-11-03T03:32:27.428Z,63.20
2017-11-03T03:34:55.314Z,62.80
2017-11-03T03:37:22.478Z,62.70
2017-11-03T03:39:49.586Z,62.70
2017-11-03T03:42:17.468Z,62.80
2017-11-03T03:44:45.361Z,63.60
2017-11-03T03:47:12.514Z,63.50
2017-11-03T03:49:39.725Z,63.30
2017-11-03T03:52:08.379Z,63.10
2017-11-03T03:54:35.558Z,62.70
2017-11-03T03:57:03.443Z,62.70
2017-11-03T03:59:31.319Z,62.70
2017-11-03T04:01:59.204Z,62.70
2017-11-03T04:04:26.316Z,62.70
2017-11-03T04:06:54.279Z,63.50
2017-11-03T04:09:21.395Z,62.80
2017-11-03T04:11:48.512Z,62.90
2017-11-03T04:14:15.628Z,62.80
2017-11-03T04:16:42.757Z,62.90
2017-11-03T04:19:09.935Z,62.90
2017-11-03T04:21:38.625Z,62.90
2017-11-03T04:24:07.057Z,62.90
2017-11-03T04:26:34.302Z,62.90
2017-11-03T04:29:01.510Z,63.70
2017-11-03T04:31:29.396Z,62.80
2017-11-03T04:33:56.523Z,62.80
2017-11-03T04:36:23.681Z,62.60
2017-11-03T04:38:51.592Z,62.60
2017-11-03T04:41:18.799Z,62.70
2017-11-03T04:43:47.646Z,62.70
2017-11-03T04:46:14.770Z,62.80
2017-11-03T04:48:42.839Z,62.70
2017-11-03T04:51:09.955Z,62.80
2017-11-03T04:53:37.931Z,62.90
2017-11-03T04:56:05.902Z,63.40
2017-11-03T04:58:34.419Z,63.00
2017-11-03T05:01:02.448Z,62.90
2017-11-03T05:03:29.712Z,62.90
2017-11-03T05:05:57.635Z,63.80
2017-11-03T05:08:24.836Z,63.60
2017-11-03T05:10:52.719Z,62.80
2017-11-03T05:13:19.838Z,62.70
2017-11-03T05:15:47.746Z,62.80
2017-11-03T05:18:14.867Z,62.70
2017-11-03T05:20:42.757Z,63.10
2017-11-03T05:23:09.905Z,62.70
2017-11-03T05:25:37.786Z,62.70
2017-11-03T05:28:04.902Z,62.70
2017-11-03T05:30:32.022Z,62.70
2017-11-03T05:32:59.138Z,62.80
2017-11-03T05:35:26.250Z,62.80
2017-11-03T05:37:53.371Z,62.80
2017-11-03T05:40:20.486Z,62.90
2017-11-03T05:42:48.396Z,62.90
2017-11-03T05:45:15.524Z,63.70
2017-11-03T05:47:42.683Z,63.50
2017-11-03T05:50:09.801Z,62.80
2017-11-03T05:52:37.710Z,62.50
2017-11-03T05:55:05.597Z,62.70
2017-11-03T05:57:33.496Z,62.70
2017-11-03T06:00:01.396Z,62.50
2017-11-03T06:02:28.519Z,62.50
2017-11-03T06:04:56.421Z,62.50
2017-11-03T06:07:23.536Z,62.20
2017-11-03T06:09:50.650Z,62.10
2017-11-03T06:12:17.762Z,62.10
2017-11-03T06:14:44.885Z,62.10
2017-11-03T06:17:12.006Z,62.20
2017-11-03T06:19:39.128Z,62.30
2017-11-03T06:22:07.065Z,62.30
2017-11-03T06:24:34.210Z,62.30
2017-11-03T06:27:02.086Z,62.30
2017-11-03T06:29:29.203Z,62.30
2017-11-03T06:31:57.902Z,62.20
2017-11-03T06:34:25.883Z,62.50
2017-11-03T06:36:53.882Z,62.50
2017-11-03T06:39:21.000Z,62.40
2017-11-03T06:41:48.915Z,62.30
2017-11-03T06:44:16.031Z,62.30
2017-11-03T06:46:43.254Z,62.30
2017-11-03T06:49:11.140Z,62.50
2017-11-03T06:51:39.031Z,62.30
2017-11-03T06:54:06.140Z,62.30
2017-11-03T06:56:34.811Z,62.40
2017-11-03T06:59:01.932Z,62.30
2017-11-03T07:01:29.044Z,62.30
2017-11-03T07:03:57.339Z,62.40
2017-11-03T07:06:24.488Z,62.30
2017-11-03T07:08:51.601Z,62.40
2017-11-03T07:11:18.750Z,62.40
2017-11-03T07:13:45.878Z,62.50
2017-11-03T07:16:12.999Z,62.60
2017-11-03T07:18:40.120Z,62.80
2017-11-03T07:21:08.000Z,62.50
2017-11-03T07:23:35.119Z,62.40
2017-11-03T07:26:03.132Z,62.10
2017-11-03T07:28:30.751Z,61.90
2017-11-03T07:30:57.866Z,62.30
2017-11-03T07:33:24.973Z,62.30
2017-11-03T07:35:52.857Z,62.40
2017-11-03T07:38:19.978Z,62.40
2017-11-03T07:40:47.860Z,62.50
2017-11-03T07:43:15.757Z,62.50
2017-11-03T07:45:42.871Z,62.30
2017-11-03T07:48:10.747Z,62.60
2017-11-03T07:50:38.632Z,62.60
2017-11-03T07:53:06.140Z,62.50
2017-11-03T07:55:33.254Z,62.50
2017-11-03T07:58:00.403Z,63.40
2017-11-03T08:00:27.520Z,63.00
2017-11-03T08:02:55.451Z,62.80
2017-11-03T08:05:23.381Z,62.80
2017-11-03T08:07:50.543Z,62.80
2017-11-03T08:10:18.504Z,62.90
2017-11-03T08:12:45.615Z,62.80
2017-11-03T08:15:13.525Z,62.70
2017-11-03T08:17:41.550Z,62.70
2017-11-03T08:20:08.695Z,62.90
2017-11-03T08:22:35.809Z,62.70
2017-11-03T08:25:02.957Z,62.50
2017-11-03T08:27:30.107Z,62.60
2017-11-03T08:29:58.139Z,63.00
2017-11-03T08:32:26.029Z,62.40
2017-11-03T08:34:53.147Z,62.40
2017-11-03T08:37:21.848Z,62.80
2017-11-03T08:39:50.668Z,63.10
2017-11-03T08:42:17.817Z,63.20
2017-11-03T08:44:44.943Z,62.50
2017-11-03T08:47:14.769Z,62.40
2017-11-03T08:49:41.882Z,62.40
2017-11-03T08:52:09.540Z,62.30
2017-11-03T08:54:36.668Z,62.20
2017-11-03T08:57:03.792Z,62.10
2017-11-03T08:59:30.909Z,62.10
2017-11-03T09:01:58.798Z,62.00
2017-11-03T09:04:25.966Z,61.80
2017-11-03T09:06:53.087Z,61.80
2017-11-03T09:09:21.968Z,61.80
2017-11-03T09:11:49.847Z,61.80
2017-11-03T09:14:17.735Z,62.00
2017-11-03T09:16:44.866Z,62.00
2017-11-03T09:19:13.527Z,61.90
2017-11-03T09:21:41.589Z,61.90
2017-11-03T09:24:08.706Z,61.90
2017-11-03T09:26:36.607Z,62.20
2017-11-03T09:29:03.762Z,62.70
2017-11-03T09:31:31.784Z,63.20
2017-11-03T09:34:00.699Z,62.40
2017-11-03T09:36:27.824Z,63.00
2017-11-03T09:38:54.949Z,62.60
2017-11-03T09:41:22.835Z,62.10
2017-11-03T09:43:49.957Z,62.10
2017-11-03T09:46:17.891Z,61.70
2017-11-03T09:48:45.019Z,61.60
2017-11-03T09:51:12.172Z,61.40
2017-11-03T09:53:39.296Z,62.00
2017-11-03T09:56:07.948Z,61.40
2017-11-03T09:58:35.104Z,61.40
2017-11-03T10:01:02.256Z,61.60
2017-11-03T10:03:30.155Z,61.90
2017-11-03T10:05:58.107Z,61.80
2017-11-03T10:08:25.993Z,62.10
2017-11-03T10:10:54.047Z,61.60
2017-11-03T10:13:21.463Z,61.60
2017-11-03T10:15:48.611Z,61.70
2017-11-03T10:18:15.720Z,61.70
2017-11-03T10:20:42.846Z,61.80
2017-11-03T10:23:10.013Z,61.60
2017-11-03T10:25:37.939Z,61.80
2017-11-03T10:28:05.055Z,61.80
2017-11-03T10:30:32.168Z,61.80
2017-11-03T10:32:59.326Z,61.80
2017-11-03T10:35:27.207Z,62.10
2017-11-03T10:37:55.105Z,62.00
2017-11-03T10:40:22.223Z,62.70
2017-11-03T10:42:50.135Z,62.00
2017-11-03T10:45:18.083Z,61.90
2017-11-03T10:47:45.276Z,61.80
2017-11-03T10:50:13.164Z,61.90
2017-11-03T10:52:40.310Z,61.90
2017-11-03T10:55:08.234Z,62.40
2017-11-03T10:57:36.162Z,62.80
2017-11-03T11:00:04.053Z,61.80
2017-11-03T11:02:31.194Z,61.80
2017-11-03T11:04:59.187Z,61.40
2017-11-03T11:07:27.238Z,61.40
2017-11-03T11:09:56.016Z,61.30
2017-11-03T11:12:24.724Z,61.30
2017-11-03T11:14:52.693Z,61.30
2017-11-03T11:17:20.580Z,61.30
2017-11-03T11:19:48.634Z,61.40
2017-11-03T11:22:16.559Z,61.40
2017-11-03T11:24:44.582Z,61.50
2017-11-03T11:27:12.479Z,61.50
2017-11-03T11:29:39.601Z,61.70
2017-11-03T11:32:07.495Z,61.70
2017-11-03T11:34:35.559Z,61.60
2017-11-03T11:37:03.495Z,61.60
2017-11-03T11:39:31.411Z,61.70
2017-11-03T11:42:00.096Z,61.70
2017-11-03T11:44:27.226Z,61.70
2017-11-03T11:46:55.173Z,61.70
2017-11-03T11:49:22.286Z,61.80
2017-11-03T11:51:50.187Z,61.90
2017-11-03T11:54:18.086Z,61.90
2017-11-03T11:56:45.637Z,61.90
2017-11-03T11:59:12.749Z,62.20
2017-11-03T12:01:41.435Z,62.20
2017-11-03T12:04:09.351Z,62.30
2017-11-03T12:06:37.287Z,62.10
2017-11-03T12:09:05.180Z,62.10
2017-11-03T12:11:32.303Z,62.10
2017-11-03T12:14:01.126Z,62.10
2017-11-03T12:16:28.247Z,62.00
2017-11-03T12:18:56.948Z,62.10
2017-11-03T12:21:24.958Z,62.10
2017-11-03T12:23:52.848Z,62.20
2017-11-03T12:26:19.970Z,62.10
2017-11-03T12:28:48.121Z,62.60
2017-11-03T12:31:16.199Z,62.40
2017-11-03T12:33:44.225Z,62.10
2017-11-03T12:36:12.158Z,62.70
2017-11-03T12:38:40.050Z,62.20
2017-11-03T12:41:07.173Z,62.30
2017-11-03T12:43:34.315Z,62.10
2017-11-03T12:46:02.478Z,62.30
2017-11-03T12:48:29.841Z,62.30
2017-11-03T12:50:57.958Z,62.30
2017-11-03T12:53:25.882Z,62.30
2017-11-03T12:55:53.006Z,63.10
2017-11-03T12:58:20.897Z,62.30
2017-11-03T13:00:48.150Z,62.40
2017-11-03T13:03:15.261Z,62.20
2017-11-03T13:05:43.147Z,62.40
2017-11-03T13:08:11.075Z,62.30
2017-11-03T13:10:38.196Z,62.30
2017-11-03T13:13:05.315Z,62.40
2017-11-03T13:15:34.097Z,62.50
2017-11-03T13:18:01.978Z,62.40
2017-11-03T13:20:29.089Z,62.40
2017-11-03T13:22:56.213Z,62.70
2017-11-03T13:25:25.266Z,62.50
2017-11-03T13:27:53.158Z,62.30
2017-11-03T13:30:20.327Z,62.10
2017-11-03T13:32:48.007Z,62.40
2017-11-03T13:35:15.127Z,62.30
2017-11-03T13:37:42.249Z,62.40
2017-11-03T13:40:10.179Z,62.50
2017-11-03T13:42:37.350Z,62.50
2017-11-03T13:45:05.250Z,62.90
2017-11-03T13:47:32.368Z,62.90
2017-11-03T13:50:00.251Z,62.40
2017-11-03T13:52:28.132Z,62.50
2017-11-03T13:54:55.252Z,62.40
2017-11-03T13:57:22.366Z,62.30
2017-11-03T13:59:49.492Z,62.00
2017-11-03T14:02:17.375Z,61.90
2017-11-03T14:04:44.488Z,61.80
2017-11-03T14:07:12.379Z,61.70
2017-11-03T14:09:39.527Z,61.70
2017-11-03T14:12:06.648Z,61.70
2017-11-03T14:14:35.386Z,61.80
2017-11-03T14:17:02.504Z,61.80
2017-11-03T14:19:29.623Z,62.00
2017-11-03T14:21:56.739Z,61.90
2017-11-03T14:24:23.886Z,62.40
2017-11-03T14:26:51.012Z,62.10
2017-11-03T14:29:18.438Z,62.10
2017-11-03T14:31:46.363Z,62.80
2017-11-03T14:34:13.507Z,62.00
2017-11-03T14:36:40.637Z,62.10
2017-11-03T14:39:07.748Z,62.10
2017-11-03T14:41:34.863Z,62.10
2017-11-03T14:44:01.982Z,62.20
2017-11-03T14:46:29.104Z,62.30
2017-11-03T14:48:56.219Z,62.30
2017-11-03T14:51:23.618Z,62.40
2017-11-03T14:53:51.506Z,62.60
2017-11-03T14:56:19.812Z,62.60
2017-11-03T14:58:46.932Z,62.40
2017-11-03T15:01:15.672Z,62.40
2017-11-03T15:03:43.559Z,62.40
2017-11-03T15:06:11.479Z,62.40
2017-11-03T15:08:38.607Z,62.40
2017-11-03T15:11:06.503Z,62.60
2017-11-03T15:13:33.621Z,62.60
2017-11-03T15:16:02.357Z,62.80
2017-11-03T15:18:29.474Z,62.80
2017-11-03T15:20:56.584Z,63.00
2017-11-03T15:23:23.698Z,63.50
2017-11-03T15:25:50.834Z,62.60
2017-11-03T15:28:18.767Z,62.30
2017-11-03T15:30:46.651Z,62.60
2017-11-03T15:33:14.536Z,63.20
2017-11-03T15:35:41.655Z,62.50
2017-11-03T15:38:10.348Z,62.60
2017-11-03T15:40:39.151Z,62.70
2017-11-03T15:43:07.071Z,62.70
2017-11-03T15:45:34.192Z,62.60
2017-11-03T15:48:02.131Z,62.80
2017-11-03T15:50:30.939Z,63.70
2017-11-03T15:52:59.839Z,63.70
2017-11-03T15:55:26.963Z,62.70
2017-11-03T15:57:55.592Z,63.20
2017-11-03T16:00:22.710Z,62.60
2017-11-03T16:02:50.655Z,62.40
2017-11-03T16:05:19.440Z,62.50
2017-11-03T16:07:48.111Z,62.60
2017-11-03T16:10:17.395Z,62.50
2017-11-03T16:12:45.332Z,62.50
2017-11-03T16:15:13.363Z,62.80
2017-11-03T16:17:41.268Z,63.60
2017-11-03T16:20:09.348Z,63.40
2017-11-03T16:22:37.378Z,62.90
2017-11-03T16:25:04.527Z,62.60
2017-11-03T16:27:32.463Z,62.50
2017-11-03T16:30:00.515Z,62.50
2017-11-03T16:32:28.539Z,62.50
2017-11-03T16:34:56.463Z,62.50
2017-11-03T16:37:23.642Z,62.40
2017-11-03T16:39:50.803Z,62.50
2017-11-03T16:42:19.323Z,63.30
2017-11-03T16:44:47.254Z,63.30
2017-11-03T16:47:15.301Z,62.70
2017-11-03T16:49:43.367Z,63.90
2017-11-03T16:52:11.307Z,63.10
2017-11-03T16:54:39.345Z,62.60
2017-11-03T16:57:07.302Z,61.90
2017-11-03T16:59:35.218Z,62.00
2017-11-03T17:02:02.338Z,61.90
2017-11-03T17:04:30.227Z,61.90
2017-11-03T17:06:57.394Z,62.20
2017-11-03T17:09:24.515Z,62.40
2017-11-03T17:11:53.177Z,62.40
2017-11-03T17:14:21.226Z,62.40
2017-11-03T17:16:49.056Z,62.40
2017-11-03T17:19:16.951Z,62.30
2017-11-03T17:21:44.071Z,62.30
2017-11-03T17:24:11.960Z,62.20
2017-11-03T17:26:39.863Z,62.20
2017-11-03T17:29:06.986Z,62.10
2017-11-03T17:31:34.111Z,62.80
2017-11-03T17:34:02.001Z,62.60
2017-11-03T17:36:29.117Z,62.60
2017-11-03T17:38:57.011Z,62.10
2017-11-03T17:41:24.136Z,62.20
2017-11-03T17:43:52.026Z,62.00
2017-11-03T17:46:19.786Z,61.90
2017-11-03T17:48:46.899Z,61.90
2017-11-03T17:51:14.057Z,62.30
2017-11-03T17:53:41.181Z,62.50
2017-11-03T17:56:08.301Z,63.30
2017-11-03T17:58:35.422Z,62.80
2017-11-03T18:01:03.313Z,62.40
2017-11-03T18:03:30.463Z,62.30
2017-11-03T18:05:57.575Z,62.10
2017-11-03T18:08:24.727Z,61.90
2017-11-03T18:10:51.859Z,62.80
2017-11-03T18:13:19.500Z,62.90
2017-11-03T18:15:46.624Z,62.30
2017-11-03T18:18:13.750Z,62.10
2017-11-03T18:20:41.682Z,62.20
2017-11-03T18:23:08.804Z,62.20
2017-11-03T18:25:35.928Z,62.10
2017-11-03T18:28:03.819Z,62.10
2017-11-03T18:30:30.935Z,62.10
2017-11-03T18:32:58.829Z,62.60
2017-11-03T18:35:26.731Z,62.00
2017-11-03T18:37:54.789Z,62.50
2017-11-03T18:40:21.916Z,63.30
2017-11-03T18:42:49.552Z,63.00
2017-11-03T18:45:16.684Z,62.40
2017-11-03T18:47:43.803Z,62.20
2017-11-03T18:50:10.927Z,62.30
2017-11-03T18:52:38.892Z,62.30
2017-11-03T18:55:07.557Z,62.10
2017-11-03T18:57:34.695Z,62.10
2017-11-03T19:00:01.808Z,62.30
2017-11-03T19:02:28.960Z,62.50
2017-11-03T19:04:56.134Z,62.30
2017-11-03T19:07:23.256Z,63.80
2017-11-03T19:09:50.384Z,62.90
2017-11-03T19:12:17.503Z,62.30
2017-11-03T19:14:44.630Z,62.00
2017-11-03T19:17:11.755Z,62.00
2017-11-03T19:19:39.776Z,62.00
2017-11-03T19:22:07.667Z,61.90
2017-11-03T19:24:35.555Z,62.10
2017-11-03T19:27:02.675Z,62.10
2017-11-03T19:29:30.564Z,63.20
2017-11-03T19:31:58.583Z,63.20
2017-11-03T19:34:25.714Z,63.10
2017-11-03T19:36:52.885Z,62.30
2017-11-03T19:39:20.778Z,62.20
2017-11-03T19:41:47.907Z,62.00
2017-11-03T19:44:16.357Z,62.00
2017-11-03T19:46:43.487Z,62.60
2017-11-03T19:49:11.991Z,63.20
2017-11-03T19:51:40.010Z,62.40
2017-11-03T19:54:08.280Z,61.30
2017-11-03T19:56:36.195Z,61.40
2017-11-03T19:59:05.778Z,61.40
2017-11-03T20:01:33.701Z,61.40
2017-11-03T20:04:01.965Z,61.40
2017-11-03T20:06:29.895Z,61.40
2017-11-03T20:08:59.811Z,61.20
2017-11-03T20:11:28.467Z,62.10
2017-11-03T20:13:57.907Z,62.00
2017-11-03T20:16:26.015Z,61.40
2017-11-03T20:18:53.912Z,61.40
2017-11-03T20:21:21.102Z,61.00
2017-11-03T20:23:49.368Z,62.70
2017-11-03T20:26:17.527Z,62.70
2017-11-03T20:28:44.648Z,61.80
2017-11-03T20:31:11.764Z,61.40
2017-11-03T20:33:39.276Z,61.50
2017-11-03T20:38:50.397Z,61.30
2017-11-03T20:41:18.954Z,61.30
2017-11-03T20:43:46.208Z,61.30
2017-11-03T20:46:13.391Z,61.40
2017-11-03T20:48:41.281Z,61.60
2017-11-03T20:51:08.470Z,61.50
2017-11-03T20:53:38.632Z,62.90
2017-11-03T20:56:08.683Z,61.50
2017-11-03T20:58:35.839Z,61.50
2017-11-03T21:01:03.065Z,61.40
2017-11-03T21:03:30.957Z,61.50
2017-11-03T21:05:58.994Z,61.50
2017-11-03T21:08:27.924Z,61.50
2017-11-03T21:10:55.464Z,61.50
2017-11-03T21:13:22.613Z,61.50
2017-11-03T21:15:49.727Z,61.30
2017-11-03T21:18:16.891Z,61.20
2017-11-03T21:20:44.792Z,62.80
2017-11-03T21:23:12.059Z,62.50
2017-11-03T21:25:39.188Z,62.10
2017-11-03T21:28:06.422Z,62.10
2017-11-03T21:30:37.078Z,61.10
2017-11-03T21:33:04.407Z,61.10
2017-11-03T21:35:32.923Z,60.90
2017-11-03T21:38:00.148Z,60.90
2017-11-03T21:40:28.674Z,61.10
2017-11-03T21:42:55.801Z,61.10
2017-11-03T21:45:23.302Z,62.20
2017-11-03T21:47:50.427Z,62.20
2017-11-03T21:50:19.388Z,61.30
2017-11-03T21:52:48.172Z,60.90
2017-11-03T21:55:16.959Z,61.00
2017-11-03T21:57:45.747Z,60.90
2017-11-03T22:00:13.639Z,61.90
2017-11-03T22:02:40.872Z,61.10
2017-11-03T22:05:08.838Z,61.90
2017-11-03T22:07:37.499Z,62.20
2017-11-03T22:10:05.380Z,62.20
2017-11-03T22:12:32.557Z,61.50
2017-11-03T22:15:00.515Z,61.00
2017-11-03T22:17:28.399Z,60.90
2017-11-03T22:19:56.464Z,60.90
2017-11-03T22:22:24.549Z,61.10
2017-11-03T22:24:52.702Z,61.00
2017-11-03T22:27:20.587Z,62.20
2017-11-03T22:29:47.760Z,62.20
2017-11-03T22:32:15.811Z,61.70
2017-11-03T22:34:43.714Z,60.90
2017-11-03T22:37:11.787Z,60.50
2017-11-03T22:39:39.687Z,60.80
2017-11-03T22:42:06.875Z,60.80
2017-11-03T22:44:34.949Z,60.50
2017-11-03T22:47:02.075Z,60.70
2017-11-03T22:49:30.906Z,60.60
2017-11-03T22:51:58.124Z,60.60
2017-11-03T22:54:26.099Z,60.70
2017-11-03T22:56:54.055Z,60.60
2017-11-03T22:59:22.972Z,60.80
2017-11-03T23:01:50.093Z,60.70
2017-11-03T23:04:17.989Z,61.40
2017-11-03T23:06:45.918Z,61.50
2017-11-03T23:09:13.102Z,61.10
2017-11-03T23:11:41.031Z,60.80
2017-11-03T23:14:08.277Z,60.80
2017-11-03T23:16:36.282Z,60.70
2017-11-03T23:19:04.199Z,60.50
2017-11-03T23:21:32.326Z,60.50
2017-11-03T23:24:00.222Z,61.50
2017-11-03T23:26:27.342Z,61.50
2017-11-03T23:28:56.047Z,60.70
2017-11-03T23:31:23.162Z,60.70
2017-11-03T23:33:51.823Z,60.70
2017-11-03T23:36:19.023Z,60.60
2017-11-03T23:38:46.914Z,61.90
2017-11-03T23:41:14.829Z,61.80
2017-11-03T23:43:42.835Z,61.00
2017-11-03T23:46:10.794Z,60.70
2017-11-03T23:48:38.679Z,60.30
2017-11-03T23:51:05.824Z,60.80
2017-11-03T23:53:34.571Z,60.60
2017-11-03T23:56:01.699Z,60.60
2017-11-03T23:58:29.779Z,60.50
